PN35 weather

Flying R Airport
Harrisonville, Pennsylvania, United States

Public forecast

Using degrees Fahrenheit for public forecast. Weather courtesy of forecast.io.

METAR (pilot weather report)

Closest report is Bedford County Airport, 20.4 nm (37.7 km) WNW. Retrieved 2019/05/27 00:35 UTC (5 minutes ago):

KHMZ 270035Z AUTO 00000KT 10SM CLR 23/16 A2998 RMK AO2 T02250161

TAF (pilot weather forecast)

Forecast is more than 12 hours old.

Closest forecast is Altoona Blair County Airport, 20.8 nm (38.6 km) NNW. Retrieved 2019/05/26 00:51 UTC (24 hours ago):

TAF KAOO 262348Z 2700/2724 30005KT P6SM BKN080 FM270200 VRB04KT P6SM VCSH BKN050 FM270600 VRB03KT P6SM BKN050 FM270800 VRB02KT 4SM BR BKN015 FM271200 34004KT P6SM SCT050